Time;durP1;ratioP1;P1;durP2;ratioP2;P2;SDS_P1;SDS_P2;PMS_P1;PMS_P2;Temp;Humidity;BMP_temperature;BMP_pressure;BME280_temperature;BME280_humidity;BME280_pressure;Samples;Min_cycle;Max_cycle;Signal;HPM_P1;HPM_P2
2023/07/10 00:19:20;;;;;;;0.20;0.20;;;19.70;99.90;;;;;;5043271;28;20043;-79
2023/07/10 00:21:46;;;;;;;0.13;0.13;;;19.70;99.90;;;;;;5031847;28;20428;-79
2023/07/10 00:24:12;;;;;;;0.10;0.10;;;19.70;99.90;;;;;;5045318;28;20066;-80
2023/07/10 00:26:38;;;;;;;0.20;0.20;;;19.70;99.90;;;;;;5040509;28;20041;-79
2023/07/10 00:29:22;;;;;;;0.20;0.20;;;19.70;99.90;;;;;;5046488;28;20048;-78
2023/07/10 00:31:48;;;;;;;0.20;0.20;;;19.70;99.90;;;;;;5046274;28;20055;-79
2023/07/10 00:34:16;;;;;;;0.17;0.17;;;19.70;99.90;;;;;;5050894;28;20131;-80
2023/07/10 00:36:43;;;;;;;0.10;0.10;;;19.70;99.90;;;;;;5040763;28;20112;-79
2023/07/10 00:39:29;;;;;;;0.20;0.20;;;19.70;99.90;;;;;;5038909;28;20037;-79
2023/07/10 00:41:59;;;;;;;0.20;0.20;;;19.70;99.90;;;;;;5044474;28;20045;-79
2023/07/10 00:44:32;;;;;;;;;;;19.70;99.90;;;;;;5047666;28;20045;-79
2023/07/10 00:47:05;;;;;;;0.20;0.20;;;19.70;99.90;;;;;;5049175;28;19924;-79
2023/07/10 00:49:44;;;;;;;0.20;0.20;;;19.70;99.90;;;;;;5027298;28;20045;-79
2023/07/10 00:52:22;;;;;;;0.20;0.20;;;19.70;99.90;;;;;;5027293;28;20044;-79
2023/07/10 00:54:51;;;;;;;0.20;0.20;;;19.70;99.90;;;;;;5035309;28;20040;-79
2023/07/10 00:57:24;;;;;;;0.10;0.10;;;19.70;99.90;;;;;;5028765;28;20184;-79
2023/07/10 00:59:51;;;;;;;0.20;0.20;;;19.70;99.90;;;;;;5023251;28;20148;-79
2023/07/10 01:02:20;;;;;;;0.20;0.20;;;19.60;99.90;;;;;;5030859;28;20132;-80
2023/07/10 01:04:52;;;;;;;0.10;0.10;;;19.60;99.90;;;;;;5047724;28;20033;-80
2023/07/10 01:07:19;;;;;;;0.20;0.20;;;19.60;99.90;;;;;;5051765;28;20041;-79
2023/07/10 01:10:00;;;;;;;0.20;0.20;;;19.60;99.90;;;;;;5025474;28;20041;-79
2023/07/10 01:12:28;;;;;;;0.20;0.20;;;19.60;99.90;;;;;;5035115;28;20044;-79
2023/07/10 01:14:53;;;;;;;0.20;0.20;;;19.60;99.90;;;;;;5026685;28;20183;-79
2023/07/10 01:17:19;;;;;;;0.15;0.15;;;19.60;99.90;;;;;;5024432;28;20124;-79
2023/07/10 01:19:46;;;;;;;0.20;0.20;;;19.60;99.90;;;;;;5026804;28;20045;-79
2023/07/10 01:22:13;;;;;;;0.17;0.17;;;19.50;99.90;;;;;;5027764;28;20048;-79
2023/07/10 01:24:39;;;;;;;0.13;0.13;;;19.50;99.90;;;;;;5027050;28;20072;-79
2023/07/10 01:27:11;;;;;;;0.20;0.20;;;19.50;99.90;;;;;;5043967;28;20095;-79
2023/07/10 01:29:42;;;;;;;0.20;0.20;;;19.50;99.90;;;;;;5028445;28;20477;-78
2023/07/10 01:32:14;;;;;;;0.20;0.20;;;19.50;99.90;;;;;;5042748;28;20500;-79
2023/07/10 01:34:50;;;;;;;0.17;0.17;;;19.40;99.90;;;;;;5026933;28;20131;-79
2023/07/10 01:37:16;;;;;;;0.20;0.20;;;19.40;99.90;;;;;;5029548;28;20053;-79
2023/07/10 01:39:47;;;;;;;0.22;0.20;;;19.40;99.90;;;;;;5029579;28;20159;-79
2023/07/10 01:42:13;;;;;;;0.20;0.20;;;19.40;99.90;;;;;;5031218;28;20056;-79
2023/07/10 01:44:41;;;;;;;0.20;0.20;;;19.40;99.90;;;;;;5031084;28;20412;-79
2023/07/10 01:47:09;;;;;;;0.10;0.10;;;19.40;99.90;;;;;;5032056;28;20045;-79
2023/07/10 01:49:39;;;;;;;0.20;0.20;;;19.30;99.90;;;;;;5032970;28;20543;-79
2023/07/10 01:52:07;;;;;;;0.17;0.17;;;19.30;99.90;;;;;;5017979;28;20447;-79
2023/07/10 01:54:33;;;;;;;0.20;0.20;;;19.30;99.90;;;;;;5052162;28;20037;-79
2023/07/10 01:56:59;;;;;;;0.20;0.20;;;19.30;99.90;;;;;;5030248;28;20037;-79
2023/07/10 01:59:25;;;;;;;0.20;0.20;;;19.30;99.90;;;;;;5027923;28;20124;-79
2023/07/10 02:01:54;;;;;;;0.15;0.15;;;19.30;99.90;;;;;;5033476;28;20128;-79
2023/07/10 02:04:20;;;;;;;0.20;0.20;;;19.20;99.90;;;;;;5046360;28;20128;-79
2023/07/10 02:06:46;;;;;;;0.10;0.10;;;19.20;99.90;;;;;;5032880;28;20041;-79
2023/07/10 02:09:11;;;;;;;0.10;0.10;;;19.20;99.90;;;;;;5048893;28;20041;-79
2023/07/10 02:11:37;;;;;;;0.10;0.10;;;19.20;99.90;;;;;;5044157;28;20041;-80
2023/07/10 02:14:08;;;;;;;0.20;0.20;;;19.20;99.90;;;;;;5028581;28;20041;-79
2023/07/10 02:16:34;;;;;;;0.10;0.10;;;19.20;99.90;;;;;;5050314;28;20044;-80
2023/07/10 02:19:01;;;;;;;0.10;0.10;;;19.20;99.90;;;;;;5054892;28;20451;-79
2023/07/10 02:21:27;;;;;;;0.20;0.20;;;19.20;99.90;;;;;;5021855;28;20132;-79
2023/07/10 02:23:53;;;;;;;0.10;0.10;;;19.20;99.90;;;;;;5030753;28;20576;-79
2023/07/10 02:26:18;;;;;;;0.20;0.20;;;19.20;99.90;;;;;;5032323;28;20052;-78
2023/07/10 02:28:44;;;;;;;0.20;0.20;;;19.20;99.90;;;;;;5027709;28;20045;-79
2023/07/10 02:31:11;;;;;;;0.20;0.20;;;19.10;99.90;;;;;;5050755;28;20041;-79
2023/07/10 02:33:36;;;;;;;0.17;0.17;;;19.10;99.90;;;;;;5029966;28;20051;-79
2023/07/10 02:36:03;;;;;;;0.20;0.20;;;19.10;99.90;;;;;;5050241;28;20037;-79
2023/07/10 02:38:29;;;;;;;0.20;0.20;;;19.10;99.90;;;;;;5027939;28;20408;-79
2023/07/10 02:40:55;;;;;;;0.20;0.20;;;19.10;99.90;;;;;;5048339;28;20041;-79
2023/07/10 02:43:21;;;;;;;0.20;0.20;;;19.10;99.90;;;;;;5027038;28;20048;-79
2023/07/10 02:45:47;;;;;;;0.20;0.20;;;19.10;99.90;;;;;;5039729;28;20048;-79
2023/07/10 02:48:13;;;;;;;0.20;0.20;;;19.10;99.90;;;;;;5029667;28;20777;-79
2023/07/10 02:50:38;;;;;;;0.15;0.15;;;19.10;99.90;;;;;;5044024;28;20491;-78
2023/07/10 02:53:04;;;;;;;0.10;0.10;;;19.10;99.90;;;;;;5032345;28;20040;-79
2023/07/10 02:55:30;;;;;;;0.20;0.20;;;19.10;99.90;;;;;;5033432;28;20079;-79
2023/07/10 02:57:56;;;;;;;0.20;0.20;;;19.10;99.90;;;;;;5032177;28;20091;-79
2023/07/10 03:00:22;;;;;;;0.13;0.13;;;19.10;99.90;;;;;;5030330;28;20048;-79
2023/07/10 03:02:47;;;;;;;0.20;0.20;;;19.10;99.90;;;;;;5033838;28;20150;-79
2023/07/10 03:05:13;;;;;;;0.20;0.20;;;19.10;99.90;;;;;;5032607;28;20121;-79
2023/07/10 03:07:38;;;;;;;0.10;0.10;;;19.10;99.90;;;;;;5031280;28;20052;-79
2023/07/10 03:10:06;;;;;;;0.20;0.20;;;19.10;99.90;;;;;;5047826;28;20124;-79
2023/07/10 03:12:31;;;;;;;0.20;0.20;;;19.10;99.90;;;;;;5047962;28;20080;-79
2023/07/10 03:14:57;;;;;;;0.20;0.20;;;19.10;99.90;;;;;;5032150;28;20087;-79
2023/07/10 03:17:23;;;;;;;0.10;0.10;;;19.10;99.90;;;;;;5048161;28;20483;-79
2023/07/10 03:19:50;;;;;;;0.20;0.20;;;19.00;99.90;;;;;;5031786;28;20144;-81
2023/07/10 03:22:16;;;;;;;0.20;0.20;;;19.00;99.90;;;;;;5051011;28;20045;-79
2023/07/10 03:24:42;;;;;;;0.20;0.20;;;19.00;99.90;;;;;;5027991;28;20464;-79
2023/07/10 03:27:07;;;;;;;0.20;0.20;;;19.00;99.90;;;;;;5044677;28;20417;-78
2023/07/10 03:29:35;;;;;;;0.10;0.10;;;19.00;99.90;;;;;;5028881;28;20106;-79
2023/07/10 03:32:01;;;;;;;0.20;0.20;;;19.00;99.90;;;;;;5030492;28;20049;-79
2023/07/10 03:34:26;;;;;;;0.20;0.20;;;19.00;99.90;;;;;;5048160;28;20040;-79
2023/07/10 03:36:53;;;;;;;0.20;0.20;;;19.00;99.90;;;;;;5042888;28;20048;-79
2023/07/10 03:39:18;;;;;;;0.20;0.20;;;19.00;99.90;;;;;;5040498;28;20444;-79
2023/07/10 03:41:44;;;;;;;0.20;0.20;;;19.00;99.90;;;;;;5048070;28;20135;-79
2023/07/10 03:44:10;;;;;;;0.13;0.13;;;19.00;99.90;;;;;;5036824;28;20041;-79
2023/07/10 03:46:37;;;;;;;0.20;0.20;;;19.00;99.90;;;;;;5047312;28;20037;-79
2023/07/10 03:49:03;;;;;;;0.20;0.20;;;19.00;99.90;;;;;;5039625;28;20068;-80
2023/07/10 03:51:29;;;;;;;0.20;0.20;;;19.00;99.90;;;;;;5048256;28;20044;-79
2023/07/10 03:53:55;;;;;;;0.20;0.20;;;19.00;99.90;;;;;;5041541;28;20393;-79
2023/07/10 03:56:20;;;;;;;0.10;0.10;;;19.00;99.90;;;;;;5041160;28;20033;-79
2023/07/10 03:58:46;;;;;;;0.20;0.20;;;19.00;99.90;;;;;;5047732;28;20437;-79
2023/07/10 04:01:13;;;;;;;0.20;0.20;;;19.00;99.90;;;;;;5046539;28;20548;-79
2023/07/10 04:03:40;;;;;;;0.20;0.20;;;19.00;99.90;;;;;;5048986;28;20048;-79
2023/07/10 04:06:07;;;;;;;0.20;0.20;;;19.00;99.90;;;;;;5042108;28;20096;-79
2023/07/10 04:08:38;;;;;;;0.20;0.20;;;19.00;99.90;;;;;;5034387;28;20477;-80
2023/07/10 04:11:07;;;;;;;0.17;0.17;;;19.00;99.90;;;;;;5047496;28;20087;-79
2023/07/10 04:13:33;;;;;;;0.20;0.20;;;19.00;99.90;;;;;;5044742;28;20048;-80
2023/07/10 04:16:00;;;;;;;0.22;0.22;;;19.00;99.90;;;;;;5047507;28;20045;-80
2023/07/10 04:18:32;;;;;;;0.20;0.20;;;19.00;99.90;;;;;;5035687;28;20482;-80
2023/07/10 04:20:59;;;;;;;0.10;0.10;;;19.00;99.90;;;;;;5047201;28;20637;-79
2023/07/10 04:23:25;;;;;;;0.20;0.20;;;19.00;99.90;;;;;;5043085;28;20060;-80
2023/07/10 04:25:51;;;;;;;0.20;0.20;;;19.00;99.90;;;;;;5044802;28;20076;-80
2023/07/10 04:28:17;;;;;;;0.20;0.20;;;19.00;99.90;;;;;;5045232;28;20083;-80
2023/07/10 04:30:46;;;;;;;0.20;0.20;;;19.00;99.90;;;;;;5048702;28;20406;-79
2023/07/10 04:33:12;;;;;;;0.20;0.20;;;19.00;99.90;;;;;;5045937;28;20059;-79
2023/07/10 04:35:39;;;;;;;0.20;0.20;;;19.00;99.90;;;;;;5032057;28;20045;-79
2023/07/10 04:38:05;;;;;;;0.20;0.20;;;19.00;99.90;;;;;;5047189;28;20454;-80
2023/07/10 04:40:31;;;;;;;0.20;0.20;;;19.00;99.90;;;;;;5047119;28;20503;-80
2023/07/10 04:42:56;;;;;;;0.20;0.20;;;19.00;99.90;;;;;;5046527;28;20037;-80
2023/07/10 04:45:22;;;;;;;0.20;0.20;;;19.00;99.90;;;;;;5044672;28;20073;-80
2023/07/10 04:47:48;;;;;;;0.20;0.20;;;19.00;99.90;;;;;;5046112;28;20546;-81
2023/07/10 04:50:14;;;;;;;0.20;0.20;;;19.00;99.90;;;;;;5048345;28;20065;-81
2023/07/10 04:52:40;;;;;;;0.20;0.20;;;19.10;99.90;;;;;;5045220;28;20049;-80
2023/07/10 04:55:07;;;;;;;0.20;0.20;;;19.10;99.90;;;;;;5047626;28;20076;-80
2023/07/10 04:57:33;;;;;;;0.20;0.20;;;19.00;99.90;;;;;;5047773;28;20075;-80
2023/07/10 04:59:58;;;;;;;0.20;0.20;;;19.10;99.90;;;;;;5039669;28;20068;-80
2023/07/10 05:02:24;;;;;;;0.17;0.17;;;19.10;99.90;;;;;;5042598;28;20049;-80
2023/07/10 05:04:50;;;;;;;0.20;0.20;;;19.10;99.90;;;;;;5050316;28;20532;-79
2023/07/10 05:07:15;;;;;;;0.20;0.20;;;19.00;99.90;;;;;;5041031;28;20059;-79
2023/07/10 05:09:41;;;;;;;0.20;0.20;;;19.10;99.90;;;;;;5046930;28;20037;-80
2023/07/10 05:12:07;;;;;;;0.20;0.20;;;19.00;99.90;;;;;;5041792;28;20127;-80
2023/07/10 05:14:33;;;;;;;0.15;0.15;;;19.00;99.90;;;;;;5043447;28;20037;-79
2023/07/10 05:16:59;;;;;;;0.20;0.20;;;19.00;99.90;;;;;;5041529;28;20044;-80
2023/07/10 05:19:25;;;;;;;0.20;0.20;;;19.00;99.90;;;;;;5047409;28;20041;-79
2023/07/10 05:21:50;;;;;;;0.20;0.20;;;19.00;99.90;;;;;;5046968;28;20124;-80
2023/07/10 05:24:16;;;;;;;0.10;0.10;;;19.00;99.90;;;;;;5045181;28;20120;-78
2023/07/10 05:26:42;;;;;;;0.17;0.17;;;19.10;99.90;;;;;;5048380;28;20434;-79
2023/07/10 05:29:08;;;;;;;0.20;0.20;;;19.10;99.90;;;;;;5049067;28;20029;-80
2023/07/10 05:31:34;;;;;;;0.20;0.20;;;19.10;99.90;;;;;;5044347;28;20064;-79
2023/07/10 05:34:00;;;;;;;0.10;0.10;;;19.10;99.90;;;;;;5048827;28;20075;-79
2023/07/10 05:36:25;;;;;;;0.20;0.20;;;19.10;99.90;;;;;;5044989;28;20037;-79
2023/07/10 05:38:52;;;;;;;0.20;0.20;;;19.20;99.90;;;;;;5052694;28;20136;-79
2023/07/10 05:41:20;;;;;;;0.20;0.20;;;19.20;99.90;;;;;;5048721;28;20084;-79
2023/07/10 05:43:46;;;;;;;0.10;0.10;;;19.20;99.90;;;;;;5049136;28;20041;-79
2023/07/10 05:46:12;;;;;;;0.10;0.10;;;19.30;99.90;;;;;;5050538;28;20039;-79
2023/07/10 05:48:38;;;;;;;0.20;0.20;;;19.30;99.90;;;;;;5051598;28;20107;-79
2023/07/10 05:51:04;;;;;;;0.20;0.20;;;19.30;99.90;;;;;;5049866;28;20040;-79
2023/07/10 05:53:33;;;;;;;0.20;0.20;;;19.40;99.90;;;;;;5049619;28;20080;-79
2023/07/10 05:56:00;;;;;;;0.20;0.20;;;19.40;99.90;;;;;;5043244;28;20124;-79
2023/07/10 05:58:28;;;;;;;0.20;0.20;;;19.40;99.90;;;;;;5046369;28;20041;-78
2023/07/10 06:00:57;;;;;;;0.13;0.13;;;19.40;99.90;;;;;;5042595;28;20076;-78
2023/07/10 06:03:23;;;;;;;0.20;0.20;;;19.40;99.90;;;;;;5053303;28;20306;-78
2023/07/10 06:05:57;;;;;;;0.20;0.20;;;19.50;99.90;;;;;;5047161;28;20033;-80
2023/07/10 06:08:27;;;;;;;0.15;0.15;;;19.50;99.90;;;;;;5036929;28;20751;-81
2023/07/10 06:10:52;;;;;;;0.20;0.20;;;19.50;99.90;;;;;;5039305;28;20045;-80
2023/07/10 06:13:19;;;;;;;0.20;0.20;;;19.50;99.90;;;;;;5043503;28;20102;-80
2023/07/10 06:15:50;;;;;;;0.10;0.10;;;19.50;99.90;;;;;;5051085;28;20037;-80
2023/07/10 06:18:17;;;;;;;0.20;0.20;;;19.50;99.90;;;;;;5050793;28;20044;-79
2023/07/10 06:20:43;;;;;;;0.10;0.10;;;19.50;99.90;;;;;;5040020;28;20129;-80
2023/07/10 06:23:08;;;;;;;0.20;0.20;;;19.60;99.90;;;;;;5031613;28;20136;-80
2023/07/10 06:25:34;;;;;;;0.20;0.20;;;19.60;99.90;;;;;;5041451;28;20068;-82
2023/07/10 06:28:00;;;;;;;0.20;0.20;;;19.70;99.90;;;;;;5040993;28;20071;-81
2023/07/10 06:30:26;;;;;;;0.15;0.15;;;19.70;99.90;;;;;;5043206;28;20515;-81
2023/07/10 06:32:51;;;;;;;0.10;0.10;;;19.70;99.90;;;;;;5040365;28;20554;-79
2023/07/10 06:35:17;;;;;;;0.20;0.20;;;19.70;99.90;;;;;;5038185;28;20102;-81
2023/07/10 06:37:44;;;;;;;0.10;0.10;;;19.70;99.90;;;;;;5045185;28;20071;-81
2023/07/10 06:40:13;;;;;;;0.20;0.20;;;19.70;99.90;;;;;;5059846;28;20132;-82
2023/07/10 06:42:40;;;;;;;0.20;0.20;;;19.70;99.90;;;;;;5048913;28;20116;-82
2023/07/10 06:45:07;;;;;;;0.20;0.20;;;19.70;99.90;;;;;;5049387;28;20407;-82
2023/07/10 06:47:39;;;;;;;0.20;0.20;;;19.70;99.90;;;;;;5048860;28;20515;-83
2023/07/10 06:50:05;;;;;;;0.20;0.20;;;19.70;99.90;;;;;;5051244;28;20041;-83
2023/07/10 06:52:30;;;;;;;0.10;0.10;;;19.70;99.90;;;;;;5050660;28;20040;-84
2023/07/10 06:54:56;;;;;;;0.10;0.10;;;19.70;99.90;;;;;;5045803;28;20049;-82
2023/07/10 06:57:22;;;;;;;0.20;0.20;;;19.70;99.90;;;;;;5048164;28;20041;-82
2023/07/10 06:59:47;;;;;;;0.20;0.20;;;19.80;99.90;;;;;;5050292;28;20458;-82
2023/07/10 07:02:13;;;;;;;0.20;0.20;;;19.80;99.90;;;;;;5048608;28;20045;-82
2023/07/10 07:04:41;;;;;;;0.20;0.20;;;19.80;99.90;;;;;;5045958;28;20425;-82
2023/07/10 07:07:08;;;;;;;0.20;0.20;;;19.90;99.90;;;;;;5044517;28;20456;-81
2023/07/10 07:09:33;;;;;;;0.17;0.17;;;19.90;99.90;;;;;;5042577;28;20039;-82
2023/07/10 07:11:59;;;;;;;0.20;0.20;;;20.00;99.90;;;;;;5045551;28;20116;-82
2023/07/10 07:14:25;;;;;;;0.20;0.20;;;20.00;99.90;;;;;;5046584;28;20045;-81
2023/07/10 07:16:51;;;;;;;0.20;0.20;;;20.00;99.90;;;;;;5046518;28;20565;-82
2023/07/10 07:19:17;;;;;;;0.20;0.20;;;20.10;99.90;;;;;;5048580;28;20131;-82
2023/07/10 07:21:42;;;;;;;0.20;0.20;;;20.10;99.90;;;;;;5046720;28;20036;-82
2023/07/10 07:24:08;;;;;;;0.20;0.20;;;20.10;99.90;;;;;;5047930;28;20174;-81
2023/07/10 07:26:35;;;;;;;0.20;0.20;;;20.20;99.90;;;;;;5047995;28;20029;-82
2023/07/10 07:29:01;;;;;;;0.20;0.20;;;20.20;99.90;;;;;;5043488;28;20469;-83
2023/07/10 07:31:27;;;;;;;0.20;0.20;;;20.30;99.90;;;;;;5047338;28;20041;-81
2023/07/10 07:33:54;;;;;;;0.10;0.10;;;20.30;99.90;;;;;;5051034;28;20041;-83
2023/07/10 07:36:20;;;;;;;0.20;0.20;;;20.30;99.90;;;;;;5050293;28;20044;-80
2023/07/10 07:38:46;;;;;;;0.20;0.20;;;20.40;99.90;;;;;;5048315;28;20044;-83
2023/07/10 07:41:12;;;;;;;0.20;0.20;;;20.40;99.90;;;;;;5050314;28;20045;-81
2023/07/10 07:43:38;;;;;;;0.15;0.15;;;20.40;99.90;;;;;;5047077;28;20102;-82
2023/07/10 07:46:04;;;;;;;0.20;0.20;;;20.40;99.90;;;;;;5049469;28;20037;-81
2023/07/10 07:48:29;;;;;;;0.20;0.20;;;20.50;99.90;;;;;;5048798;28;20044;-81
2023/07/10 07:50:57;;;;;;;0.20;0.20;;;20.50;99.90;;;;;;5050243;28;20037;-82
2023/07/10 07:53:23;;;;;;;0.17;0.17;;;20.50;99.90;;;;;;5053055;28;20053;-82
2023/07/10 07:55:49;;;;;;;0.20;0.20;;;20.60;99.90;;;;;;5050355;28;20540;-81
2023/07/10 07:58:14;;;;;;;0.20;0.20;;;20.60;99.90;;;;;;5043763;28;20412;-82
2023/07/10 08:00:40;;;;;;;0.10;0.10;;;20.70;99.90;;;;;;5044874;28;20045;-83
2023/07/10 08:03:09;;;;;;;0.20;0.20;;;20.70;99.90;;;;;;5047888;28;20045;-82
2023/07/10 08:05:35;;;;;;;0.20;0.20;;;20.80;99.90;;;;;;5045435;28;20041;-82
2023/07/10 08:08:01;;;;;;;0.20;0.20;;;20.80;99.90;;;;;;5049117;28;20143;-82
2023/07/10 08:10:26;;;;;;;0.20;0.20;;;20.80;99.90;;;;;;5048193;28;20045;-82
2023/07/10 08:12:52;;;;;;;0.20;0.20;;;20.80;99.90;;;;;;5047812;28;20055;-82
2023/07/10 08:15:18;;;;;;;0.20;0.20;;;20.90;99.90;;;;;;5043172;28;20045;-82
2023/07/10 08:17:44;;;;;;;0.20;0.20;;;21.00;99.90;;;;;;5050193;28;20102;-82
2023/07/10 08:20:10;;;;;;;0.10;0.10;;;21.00;99.90;;;;;;5053063;28;20044;-81
2023/07/10 08:22:35;;;;;;;0.20;0.20;;;21.10;99.90;;;;;;5060922;28;20087;-82
2023/07/10 08:25:01;;;;;;;0.20;0.20;;;21.10;99.90;;;;;;5046212;28;20068;-83
2023/07/10 08:27:27;;;;;;;0.20;0.20;;;21.10;99.90;;;;;;5042730;28;20044;-83
2023/07/10 08:29:53;;;;;;;0.20;0.20;;;21.10;99.90;;;;;;5044391;28;20079;-82
2023/07/10 08:32:18;;;;;;;0.20;0.20;;;21.20;99.90;;;;;;5051273;28;20053;-82
2023/07/10 08:34:44;;;;;;;0.20;0.20;;;21.20;99.90;;;;;;5045495;28;20472;-81
2023/07/10 08:37:10;;;;;;;0.20;0.20;;;21.30;99.90;;;;;;5049357;28;20160;-83
2023/07/10 08:39:35;;;;;;;0.20;0.20;;;21.30;99.90;;;;;;5032297;28;20041;-80
2023/07/10 08:42:16;;;;;;;0.20;0.20;;;21.30;99.90;;;;;;5029955;28;20093;-82
2023/07/10 08:44:42;;;;;;;;;;;21.30;99.90;;;;;;5049590;28;20470;-82
2023/07/10 08:47:17;;;;;;;0.28;0.28;;;21.30;99.90;;;;;;5049380;28;19921;-82
2023/07/10 08:49:54;;;;;;;0.20;0.20;;;21.40;99.90;;;;;;5048370;28;20056;-83
2023/07/10 08:52:47;;;;;;;0.20;0.20;;;21.40;99.90;;;;;;5047939;28;20037;-82
2023/07/10 08:55:17;;;;;;;0.20;0.20;;;21.50;99.90;;;;;;5030156;28;20057;-84
2023/07/10 08:57:47;;;;;;;0.20;0.20;;;21.50;99.90;;;;;;5027486;28;20534;-82
2023/07/10 09:00:14;;;;;;;;;;;21.60;99.90;;;;;;5025263;28;20555;-80
2023/07/10 09:02:55;;;;;;;0.20;0.20;;;21.60;99.90;;;;;;5048522;28;20034;-83
2023/07/10 09:05:29;;;;;;;0.13;0.13;;;21.60;99.90;;;;;;5043962;28;20049;-81
2023/07/10 09:08:02;;;;;;;0.10;0.10;;;21.70;99.90;;;;;;5052949;28;20045;-81
2023/07/10 09:10:38;;;;;;;0.20;0.20;;;21.70;99.90;;;;;;5031470;28;20067;-80
2023/07/10 09:13:05;;;;;;;0.20;0.20;;;21.70;99.90;;;;;;5048208;28;20049;-81
2023/07/10 09:15:33;;;;;;;0.20;0.20;;;21.80;99.90;;;;;;5031400;28;20041;-81
2023/07/10 09:18:35;;;;;;;0.20;0.20;;;21.80;99.90;;;;;;5030978;28;20080;-81
2023/07/10 09:21:14;;;;;;;0.20;0.20;;;21.90;99.90;;;;;;5031839;28;20042;-82
2023/07/10 09:23:39;;;;;;;0.20;0.20;;;21.90;99.90;;;;;;5030538;28;20043;-81
2023/07/10 09:26:11;;;;;;;0.20;0.20;;;22.00;99.90;;;;;;5040446;28;20289;-82
2023/07/10 09:28:40;;;;;;;;;;;22.00;99.90;;;;;;5030595;28;20068;-81
2023/07/10 09:31:09;;;;;;;0.20;0.20;;;22.00;99.90;;;;;;5048070;28;20019;-81
2023/07/10 09:33:42;;;;;;;0.20;0.20;;;22.00;99.90;;;;;;5026917;28;20057;-80
2023/07/10 09:36:16;;;;;;;0.20;0.20;;;22.10;99.90;;;;;;5030702;28;20052;-81
2023/07/10 09:38:44;;;;;;;0.20;0.20;;;22.10;99.90;;;;;;5047396;28;20119;-81
2023/07/10 09:41:26;;;;;;;0.20;0.20;;;22.10;99.90;;;;;;5030738;28;20595;-81
2023/07/10 09:44:10;;;;;;;0.20;0.20;;;22.10;99.90;;;;;;5034167;28;20055;-80
2023/07/10 09:46:38;;;;;;;0.20;0.20;;;22.10;99.90;;;;;;5025853;28;20041;-81
2023/07/10 09:49:18;;;;;;;0.20;0.20;;;22.20;99.90;;;;;;5047078;28;20037;-87
2023/07/10 09:52:01;;;;;;;0.20;0.20;;;22.30;99.90;;;;;;5047958;28;20098;-84
2023/07/10 09:54:37;;;;;;;0.20;0.20;;;22.30;99.90;;;;;;5029521;28;20814;-86
2023/07/10 09:57:11;;;;;;;0.20;0.20;;;22.50;99.90;;;;;;5045486;28;20128;-83
2023/07/10 09:59:37;;;;;;;0.20;0.20;;;22.50;99.90;;;;;;5049366;28;20080;-86
2023/07/10 10:02:17;;;;;;;0.20;0.20;;;22.60;99.90;;;;;;5052896;28;20052;-86
2023/07/10 10:04:43;;;;;;;0.20;0.20;;;22.60;99.90;;;;;;5051842;28;20041;-85
2023/07/10 10:07:16;;;;;;;0.20;0.20;;;22.60;99.90;;;;;;5048298;28;20382;-85
2023/07/10 10:09:41;;;;;;;0.20;0.20;;;22.60;99.90;;;;;;5035418;28;20118;-85
2023/07/10 10:12:24;;;;;;;0.20;0.20;;;22.70;99.90;;;;;;5052034;28;20076;-85
2023/07/10 10:14:59;;;;;;;0.20;0.20;;;22.60;99.90;;;;;;5051972;28;20116;-85
2023/07/10 10:17:26;;;;;;;0.20;0.20;;;22.60;99.90;;;;;;5052976;28;20465;-85
2023/07/10 10:20:03;;;;;;;0.20;0.20;;;22.60;99.90;;;;;;5042049;28;20055;-86
2023/07/10 10:22:29;;;;;;;0.20;0.20;;;22.60;99.90;;;;;;5025015;28;20645;-86
2023/07/10 10:24:55;;;;;;;0.20;0.20;;;22.60;99.90;;;;;;5049956;28;20037;-85
2023/07/10 10:27:34;;;;;;;0.20;0.20;;;22.70;99.90;;;;;;5047300;28;20451;-86
2023/07/10 10:30:32;;;;;;;0.20;0.20;;;22.70;99.90;;;;;;5026310;28;20493;-87
2023/07/10 10:33:07;;;;;;;0.20;0.20;;;22.70;99.90;;;;;;5046289;28;20451;-86
2023/07/10 10:35:52;;;;;;;0.20;0.20;;;22.70;99.90;;;;;;5051238;28;20044;-86
2023/07/10 10:38:27;;;;;;;0.20;0.20;;;22.80;99.90;;;;;;5052484;28;20115;-87
2023/07/10 10:41:18;;;;;;;0.20;0.20;;;22.70;99.90;;;;;;5050962;28;20041;-86
2023/07/10 10:43:58;;;;;;;0.20;0.20;;;22.70;99.90;;;;;;5051758;28;20048;-85
2023/07/10 10:46:42;;;;;;;0.20;0.20;;;22.70;99.90;;;;;;5046404;28;20049;-85
2023/07/10 10:49:31;;;;;;;0.20;0.20;;;22.80;99.90;;;;;;5051161;28;20045;-85
2023/07/10 10:52:12;;;;;;;0.20;0.20;;;22.80;99.90;;;;;;5047392;28;20075;-86
2023/07/10 10:55:11;;;;;;;0.20;0.20;;;23.00;99.90;;;;;;5044873;28;20320;-85
2023/07/10 10:58:06;;;;;;;0.20;0.20;;;23.10;99.90;;;;;;5054539;28;20051;-85
2023/07/10 11:00:38;;;;;;;0.20;0.20;;;23.20;99.90;;;;;;5050619;28;20045;-83
2023/07/10 11:03:21;;;;;;;0.20;0.20;;;23.20;99.90;;;;;;5048540;28;20056;-87
2023/07/10 11:05:54;;;;;;;0.20;0.20;;;23.30;99.90;;;;;;5061831;28;20041;-86
2023/07/10 11:08:42;;;;;;;0.20;0.20;;;23.40;99.90;;;;;;5050956;28;20033;-83
2023/07/10 11:11:22;;;;;;;0.20;0.20;;;23.50;99.90;;;;;;5053278;28;20108;-83
2023/07/10 11:13:48;;;;;;;0.20;0.20;;;23.50;99.90;;;;;;5047068;28;20045;-83
2023/07/10 11:16:14;;;;;;;0.40;0.40;;;23.60;99.90;;;;;;5050177;28;20029;-84
2023/07/10 11:18:40;;;;;;;0.20;0.20;;;23.60;99.90;;;;;;5046894;28;20118;-85
2023/07/10 11:21:06;;;;;;;0.20;0.20;;;23.70;99.90;;;;;;5047737;28;20158;-81
2023/07/10 11:23:44;;;;;;;0.20;0.20;;;23.80;99.90;;;;;;5049210;28;20045;-85
2023/07/10 11:26:16;;;;;;;0.22;0.22;;;24.00;99.90;;;;;;5044595;28;20407;-85
2023/07/10 11:28:59;;;;;;;0.20;0.20;;;24.10;99.90;;;;;;5041873;28;20056;-82
2023/07/10 11:31:37;;;;;;;0.20;0.20;;;24.20;99.90;;;;;;5049844;28;20024;-83
2023/07/10 11:34:05;;;;;;;0.20;0.20;;;24.40;99.90;;;;;;5037966;28;20044;-83
2023/07/10 11:36:34;;;;;;;0.20;0.20;;;24.40;99.90;;;;;;5033070;28;20393;-83
2023/07/10 11:39:10;;;;;;;0.20;0.20;;;24.50;99.90;;;;;;5032422;28;20041;-84
2023/07/10 11:42:02;;;;;;;0.20;0.20;;;24.40;99.90;;;;;;5033014;28;20044;-83
2023/07/10 11:44:33;;;;;;;0.20;0.20;;;24.40;99.90;;;;;;5031565;28;20400;-84
2023/07/10 11:46:59;;;;;;;0.20;0.20;;;24.40;99.90;;;;;;5032724;28;20044;-84
2023/07/10 11:49:27;;;;;;;0.20;0.20;;;24.50;99.90;;;;;;5029815;28;20079;-84
2023/07/10 11:52:28;;;;;;;0.20;0.20;;;24.60;99.90;;;;;;5032011;28;20045;-84
2023/07/10 11:54:57;;;;;;;0.20;0.20;;;24.70;99.90;;;;;;5046387;28;20076;-85
2023/07/10 11:57:27;;;;;;;0.20;0.20;;;24.80;99.90;;;;;;5031614;28;20036;-86
2023/07/10 11:59:57;;;;;;;0.20;0.20;;;24.80;99.90;;;;;;5048187;28;20405;-82
2023/07/10 12:02:45;;;;;;;0.20;0.20;;;24.80;99.90;;;;;;5030993;28;20383;-83
2023/07/10 12:05:20;;;;;;;0.20;0.20;;;24.90;99.90;;;;;;5031437;28;20049;-83
2023/07/10 12:07:55;;;;;;;0.22;0.20;;;24.80;99.90;;;;;;5050372;28;20033;-83
2023/07/10 12:10:22;;;;;;;0.20;0.20;;;24.80;99.90;;;;;;5051422;28;20045;-84
2023/07/10 12:12:49;;;;;;;0.20;0.20;;;24.80;99.90;;;;;;5030507;28;20377;-83
2023/07/10 12:15:15;;;;;;;0.20;0.20;;;24.90;99.90;;;;;;5031707;28;20069;-82
2023/07/10 12:17:41;;;;;;;0.20;0.20;;;25.10;99.90;;;;;;5026661;28;20152;-83
2023/07/10 12:20:27;;;;;;;0.20;0.20;;;25.20;99.90;;;;;;5049842;28;20468;-84
2023/07/10 12:22:58;;;;;;;0.20;0.20;;;25.10;99.90;;;;;;5038521;28;20473;-82
2023/07/10 12:25:24;;;;;;;;;;;25.00;99.90;;;;;;5034442;28;20045;-81
2023/07/10 12:27:50;;;;;;;0.20;0.20;;;24.90;99.90;;;;;;5019445;28;20292;-82
2023/07/10 12:30:25;;;;;;;0.20;0.20;;;24.80;99.90;;;;;;5016218;28;20044;-82
2023/07/10 12:32:53;;;;;;;0.20;0.20;;;24.80;99.90;;;;;;5039201;28;20509;-82
2023/07/10 12:35:28;;;;;;;0.20;0.20;;;24.90;99.90;;;;;;5047908;28;20522;-82
2023/07/10 12:37:53;;;;;;;0.20;0.20;;;24.90;99.90;;;;;;5050087;28;20055;-83
2023/07/10 12:40:19;;;;;;;0.20;0.20;;;24.90;99.90;;;;;;5048203;28;20049;-83
2023/07/10 12:42:46;;;;;;;0.20;0.20;;;24.80;99.90;;;;;;5047211;28;20080;-83
2023/07/10 12:45:39;;;;;;;0.20;0.20;;;24.80;99.90;;;;;;5053519;28;20048;-82
2023/07/10 12:48:14;;;;;;;0.20;0.20;;;24.80;99.90;;;;;;5032698;28;20096;-82
2023/07/10 12:50:47;;;;;;;0.30;0.30;;;24.90;99.90;;;;;;5041271;28;20037;-81
2023/07/10 12:53:21;;;;;;;0.20;0.20;;;25.00;99.90;;;;;;5040389;28;20045;-82
2023/07/10 12:55:52;;;;;;;0.20;0.20;;;25.00;99.90;;;;;;5044465;28;20036;-82
2023/07/10 12:58:19;;;;;;;0.20;0.20;;;24.90;99.90;;;;;;5045721;28;20128;-83
2023/07/10 13:00:49;;;;;;;0.20;0.20;;;24.80;99.90;;;;;;5044437;28;20053;-82
2023/07/10 13:03:30;;;;;;;0.30;0.30;;;24.80;99.90;;;;;;5045909;28;20512;-81
2023/07/10 13:06:06;;;;;;;0.30;0.30;;;24.90;99.90;;;;;;5059581;28;20041;-82
2023/07/10 13:08:37;;;;;;;0.20;0.20;;;25.00;99.90;;;;;;5039324;28;20488;-81
2023/07/10 13:11:03;;;;;;;;;;;25.10;99.90;;;;;;5046872;28;20400;-82
2023/07/10 13:13:33;;;;;;;0.20;0.20;;;25.30;99.90;;;;;;5045909;28;19922;-82
2023/07/10 13:16:00;;;;;;;0.20;0.20;;;25.40;99.90;;;;;;5044009;28;20435;-81
2023/07/10 13:18:33;;;;;;;0.20;0.20;;;25.40;99.90;;;;;;5046290;28;20071;-82